Mount Shasta, CA

11:51 AM PDT on September 21, 2014 (GMT -0700)
RAWS MT. SHASTA CA US | Change Station
CLOSE
Current Station
Personal Weather Station
Location: Mount Shasta, CA
Elevation: 3573 ft
Nearby Weather Stations
Active Advisory: Flash Flood Warning, Flash Flood Watch Active Notice: Record Report

Elev 3573 ft 41.32 °N, 122.32 °W | Updated 57 minutes ago

Mostly Cloudy
Mostly Cloudy
73 °F
Feels Like 77 °F
N
0
Wind Variable Wind from North
Gusts 4.0 mph

Today
High -- | Low -- °F
--% Chance of Precip.
Yesterday
High -- | Low -- °F
Precip. -- in
6:55 AM 7:08 PM
Waning Crescent, 6% visible
Pressure 30.00 in
Visibility 10.0 miles
Clouds Clear
Heat Index 77 °F
Dew Point 56 °F
Humidity 56%
Rainfall 0.00 in
Snow Depth 0 in , 0 in , 0 in
UV 6 out of 12
Pollen 5.80 out of 12
Air Quality Not available.
Flu Activity Not available.
METAR KMHS 211756Z AUTO 00000KT 10SM CLR 22/13 A3004 RMK AO2 SLP159 T02220128 10222 20106 58005

More Conditions Fewer Conditions

Pressure 30.00 in
Visibility 10.0 miles
Clouds Clear
Heat Index 77 °F
Dew Point 56 °F
Humidity 56%
Rainfall 0.00 in
Snow Depth 0 in , 0 in , 0 in
UV 6 out of 12
Pollen 5.80 out of 12
Air Quality Not available.
Flu Activity Not available.
METAR KMHS 211756Z AUTO 00000KT 10SM CLR 22/13 A3004 RMK AO2 SLP159 T02220128 10222 20106 58005

More Conditions Fewer Conditions

10-Day Weather Forecast

Almanac

Astronomy

Sep. 21, 2014 Rise Set
Actual Time 6:55 AM PDT 7:08 PM PDT
Civil Twilight 6:28 AM PDT 7:35 PM PDT
Nautical Twilight 5:55 AM PDT 8:07 PM PDT
Astronomical Twilight 5:22 AM PDT 8:40 PM PDT
Moon 4:33 AM PDT 5:48 PM PDT
Length of Visible Light 13h 07m
Length of Day
12h 12m
Tomorrow will be 2m 44s shorter.
Waning Crescent, 6% of the Moon is Illuminated
Today
Waning Crescent
Sep 24
New
Oct 1
First Quarter
Oct 8
Full
Oct 15
Last Quarter

Today's Extremes

State Highs State Lows

Community

WunderPhotos

Upload Photos

1,755,211 photos uploaded!

WunderBlogs® & News

Nearby

Snow Depth

Station Depth Elevation
Adin Mountain 0 in 6200 ft
Rubicon #2 0 in 7500 ft
Echo Peak 0 in 7800 ft
Hagan's Meadow 0 in 8000 ft
Tahoe City Cross 0 in 6750 ft

Earthquake Activity

City Distance Mag. Time & Date
Eureka, California 105 miles 3.1 1:33 PM PDT
2014-09-20
Minimum magnitude displayed is 2.5.

Coastal Water Temperatures

Place Temperature
No Stations Reporting

Nearby Weather Stations